createdAt,value
2023-04-07T00:00:33.033Z,92348.38
2023-04-07T00:03:02.743Z,92345.75
2023-04-07T00:05:31.272Z,92346.84
2023-04-07T00:08:00.044Z,92325.34
2023-04-07T00:10:28.538Z,92322.78
2023-04-07T00:12:58.410Z,92327.38
2023-04-07T00:15:26.861Z,92319.63
2023-04-07T00:17:55.437Z,92316.97
2023-04-07T00:20:24.304Z,92315.91
2023-04-07T00:22:52.812Z,92313.50
2023-04-07T00:25:21.340Z,92311.88
2023-04-07T00:27:50.433Z,92309.56
2023-04-07T00:30:20.560Z,92315.47
2023-04-07T00:32:49.262Z,92308.31
2023-04-07T00:35:18.016Z,92307.59
2023-04-07T00:37:46.465Z,92295.81
2023-04-07T00:40:15.132Z,92300.44
2023-04-07T00:42:43.651Z,92298.41
2023-04-07T00:45:12.919Z,92296.28
2023-04-07T00:47:42.930Z,92288.78
2023-04-07T00:50:12.244Z,92292.31
2023-04-07T00:52:41.872Z,92282.81
2023-04-07T00:55:11.096Z,92285.03
2023-04-07T00:57:39.582Z,92279.84
2023-04-07T01:00:09.956Z,92278.66
2023-04-07T01:02:47.970Z,92276.13
2023-04-07T01:05:22.162Z,92274.09
2023-04-07T01:08:00.544Z,92276.88
2023-04-07T01:10:43.905Z,92274.09
2023-04-07T01:13:24.242Z,92264.06
2023-04-07T01:15:57.460Z,92265.72
2023-04-07T01:18:33.619Z,92262.34
2023-04-07T01:21:12.809Z,92257.59
2023-04-07T01:24:01.043Z,92247.78
2023-04-07T01:26:31.635Z,92265.81
2023-04-07T01:29:35.756Z,92259.34
2023-04-07T01:32:08.403Z,92257.59
2023-04-07T01:34:38.608Z,92253.09
2023-04-07T01:37:09.206Z,92251.41
2023-04-07T01:39:40.217Z,92246.97
2023-04-07T01:42:09.420Z,92245.84
2023-04-07T01:44:39.896Z,92244.94
2023-04-07T01:47:08.556Z,92244.09
2023-04-07T01:49:39.656Z,92246.00
2023-04-07T01:52:08.773Z,92243.97
2023-04-07T01:54:38.127Z,92235.09
2023-04-07T01:57:06.646Z,92228.91
2023-04-07T01:59:35.171Z,92229.41
2023-04-07T02:02:05.356Z,92227.34
2023-04-07T02:04:40.196Z,92224.06
2023-04-07T02:07:16.017Z,92230.03
2023-04-07T02:09:46.470Z,92220.56
2023-04-07T02:12:17.226Z,92223.56
2023-04-07T02:14:46.243Z,92220.56
2023-04-07T02:17:17.597Z,92216.56
2023-04-07T02:19:48.000Z,92216.75
2023-04-07T02:22:17.736Z,92212.00
2023-04-07T02:24:46.389Z,92201.06
2023-04-07T02:27:14.877Z,92193.31
2023-04-07T02:29:43.567Z,92193.81
2023-04-07T02:32:12.019Z,92187.53
2023-04-07T02:34:42.311Z,92186.56
2023-04-07T02:37:10.991Z,92181.97
2023-04-07T02:39:39.487Z,92183.69
2023-04-07T02:42:07.978Z,92184.16
2023-04-07T02:44:36.411Z,92174.13
2023-04-07T02:47:04.979Z,92172.75
2023-04-07T02:49:33.413Z,92169.41
2023-04-07T02:52:03.236Z,92165.00
2023-04-07T02:54:31.700Z,92156.56
2023-04-07T02:57:01.254Z,92154.97
2023-04-07T02:59:29.728Z,92152.66
2023-04-07T03:01:58.387Z,92149.44
2023-04-07T03:04:27.421Z,92153.19
2023-04-07T03:06:56.794Z,92157.03
2023-04-07T03:09:26.749Z,92153.78
2023-04-07T03:11:55.834Z,92157.34
2023-04-07T03:14:24.314Z,92170.03
2023-04-07T03:16:52.826Z,92162.25
2023-04-07T03:19:21.461Z,92164.53
2023-04-07T03:21:49.929Z,92162.38
2023-04-07T03:24:18.584Z,92163.59
2023-04-07T03:26:48.670Z,92162.34
2023-04-07T03:29:17.111Z,92162.06
2023-04-07T03:31:45.677Z,92158.13
2023-04-07T03:34:14.618Z,92154.03
2023-04-07T03:36:43.110Z,92154.50
2023-04-07T03:39:11.644Z,92152.16
2023-04-07T03:41:40.190Z,92151.47
2023-04-07T03:44:10.120Z,92152.69
2023-04-07T03:46:38.673Z,92150.38
2023-04-07T03:49:07.213Z,92151.25
2023-04-07T03:51:35.686Z,92155.72
2023-04-07T03:54:04.998Z,92155.50
2023-04-07T03:56:33.556Z,92168.78
2023-04-07T03:59:02.029Z,92166.78
2023-04-07T04:01:32.145Z,92153.06
2023-04-07T04:04:01.055Z,92155.34
2023-04-07T04:06:29.689Z,92143.78
2023-04-07T04:08:58.138Z,92137.06
2023-04-07T04:11:27.591Z,92127.19
2023-04-07T04:13:56.538Z,92129.50
2023-04-07T04:16:25.127Z,92134.38
2023-04-07T04:18:55.278Z,92132.06
2023-04-07T04:21:23.726Z,92135.09
2023-04-07T04:23:52.343Z,92134.75
2023-04-07T04:26:21.253Z,92126.97
2023-04-07T04:28:49.714Z,92123.88
2023-04-07T04:31:18.172Z,92122.63
2023-04-07T04:33:46.655Z,92120.50
2023-04-07T04:36:16.530Z,92121.28
2023-04-07T04:38:45.197Z,92117.72
2023-04-07T04:41:13.647Z,92112.25
2023-04-07T04:43:42.517Z,92115.03
2023-04-07T04:46:11.274Z,92103.41
2023-04-07T04:48:39.771Z,92115.16
2023-04-07T04:51:09.403Z,92112.81
2023-04-07T04:53:39.248Z,92112.03
2023-04-07T04:56:08.803Z,92117.13
2023-04-07T04:58:37.801Z,92104.91
2023-04-07T05:01:06.631Z,92098.75
2023-04-07T05:03:35.283Z,92105.34
2023-04-07T05:06:03.917Z,92112.81
2023-04-07T05:08:32.489Z,92105.41
2023-04-07T05:11:02.310Z,92116.91
2023-04-07T05:13:31.421Z,92106.81
2023-04-07T05:16:00.044Z,92097.50
2023-04-07T05:18:28.531Z,92098.91
2023-04-07T05:20:57.179Z,92101.69
2023-04-07T05:23:26.551Z,92093.97
2023-04-07T05:25:55.080Z,92107.06
2023-04-07T05:28:25.370Z,92112.22
2023-04-07T05:30:54.099Z,92104.66
2023-04-07T05:33:22.794Z,92110.47
2023-04-07T05:35:51.379Z,92110.38
2023-04-07T05:38:19.896Z,92104.97
2023-04-07T05:40:48.376Z,92118.34
2023-04-07T05:43:16.826Z,92115.19
2023-04-07T05:45:46.703Z,92111.00
2023-04-07T05:48:15.368Z,92115.19
2023-04-07T05:50:44.182Z,92117.41
2023-04-07T05:53:12.668Z,92112.16
2023-04-07T05:55:44.176Z,92118.03
2023-04-07T05:58:12.696Z,92109.66
2023-04-07T06:00:42.841Z,92113.66
2023-04-07T06:03:12.802Z,92115.44
2023-04-07T06:05:43.821Z,92111.97
2023-04-07T06:08:12.380Z,92111.97
2023-04-07T06:10:41.874Z,92115.19
2023-04-07T06:13:10.315Z,92111.50
2023-04-07T06:15:39.532Z,92113.03
2023-04-07T06:18:08.272Z,92120.47
2023-04-07T06:20:38.244Z,92119.78
2023-04-07T06:23:06.791Z,92115.13
2023-04-07T06:25:35.259Z,92120.06
2023-04-07T06:28:04.023Z,92118.16
2023-04-07T06:30:32.499Z,92118.28
2023-04-07T06:33:00.958Z,92117.91
2023-04-07T06:35:29.476Z,92116.16
2023-04-07T06:38:00.140Z,92115.88
2023-04-07T06:40:28.582Z,92118.94
2023-04-07T06:42:57.321Z,92120.66
2023-04-07T06:45:26.026Z,92113.91
2023-04-07T06:47:54.541Z,92116.22
2023-04-07T06:50:23.055Z,92115.94
2023-04-07T06:52:51.759Z,92118.31
2023-04-07T06:55:21.854Z,92114.44
2023-04-07T06:57:52.794Z,92109.94
2023-04-07T07:00:23.018Z,92110.34
2023-04-07T07:02:51.985Z,92116.66
2023-04-07T07:05:20.572Z,92129.56
2023-04-07T07:07:49.007Z,92130.59
2023-04-07T07:10:17.466Z,92126.97
2023-04-07T07:12:47.401Z,92120.91
2023-04-07T07:15:16.112Z,92125.28
2023-04-07T07:17:45.507Z,92120.84
2023-04-07T07:20:14.374Z,92119.81
2023-04-07T07:22:42.979Z,92126.47
2023-04-07T07:25:11.966Z,92128.88
2023-04-07T07:27:40.426Z,92120.19
2023-04-07T07:30:11.579Z,92115.06
2023-04-07T07:32:40.056Z,92118.88
2023-04-07T07:35:09.152Z,92119.94
2023-04-07T07:37:37.871Z,92112.03
2023-04-07T07:40:07.318Z,92121.97
2023-04-07T07:42:35.871Z,92116.88
2023-04-07T07:45:05.039Z,92123.97
2023-04-07T07:47:37.762Z,92108.25
2023-04-07T07:50:07.407Z,92122.06
2023-04-07T07:52:35.848Z,92122.84
2023-04-07T07:55:04.920Z,92118.66
2023-04-07T07:57:33.365Z,92128.25
2023-04-07T08:00:02.453Z,92127.63
2023-04-07T08:02:32.863Z,92128.06
2023-04-07T08:05:02.822Z,92125.53
2023-04-07T08:07:31.764Z,92119.06
2023-04-07T08:10:00.247Z,92119.34
2023-04-07T08:12:28.796Z,92122.09
2023-04-07T08:14:57.281Z,92124.00
2023-04-07T08:17:25.921Z,92131.66
2023-04-07T08:19:54.432Z,92133.25
2023-04-07T08:22:24.261Z,92128.28
2023-04-07T08:24:52.700Z,92131.69
2023-04-07T08:27:21.612Z,92126.34
2023-04-07T08:30:01.102Z,92129.41
2023-04-07T08:32:37.420Z,92124.03
2023-04-07T08:35:06.745Z,92138.63
2023-04-07T08:37:37.208Z,92143.25
2023-04-07T08:40:07.402Z,92145.94
2023-04-07T08:42:36.996Z,92137.09
2023-04-07T08:45:08.372Z,92132.09
2023-04-07T08:47:38.488Z,92135.16
2023-04-07T08:50:10.735Z,92145.16
2023-04-07T08:52:46.225Z,92145.94
2023-04-07T08:55:14.852Z,92143.22
2023-04-07T08:57:43.943Z,92152.47
2023-04-07T09:00:14.583Z,92153.25
2023-04-07T09:02:45.679Z,92150.94
2023-04-07T09:05:15.589Z,92148.63
2023-04-07T09:07:45.757Z,92157.06
2023-04-07T09:10:14.281Z,92160.53
2023-04-07T09:12:43.547Z,92151.69
2023-04-07T09:15:12.388Z,92161.66
2023-04-07T09:17:41.316Z,92164.34
2023-04-07T09:20:11.253Z,92170.03
2023-04-07T09:22:42.519Z,92168.13
2023-04-07T09:25:15.557Z,92171.97
2023-04-07T09:27:57.050Z,92175.38
2023-04-07T09:30:26.002Z,92169.16
2023-04-07T09:32:54.601Z,92172.56
2023-04-07T09:35:24.942Z,92174.06
2023-04-07T09:38:05.244Z,92176.00
2023-04-07T09:40:36.846Z,92179.00
2023-04-07T09:43:07.775Z,92185.47
2023-04-07T09:45:37.678Z,92184.97
2023-04-07T09:48:09.905Z,92187.63
2023-04-07T09:50:45.702Z,92181.91
2023-04-07T09:53:14.165Z,92188.31
2023-04-07T09:55:45.107Z,92190.25
2023-04-07T09:58:15.583Z,92183.75
2023-04-07T10:00:44.958Z,92185.25
2023-04-07T10:03:13.783Z,92192.50
2023-04-07T10:05:42.597Z,92195.25
2023-04-07T10:08:12.242Z,92191.44
2023-04-07T10:10:45.181Z,92195.31
2023-04-07T10:13:14.208Z,92195.69
2023-04-07T10:15:42.859Z,92196.03
2023-04-07T10:18:11.877Z,92193.41
2023-04-07T10:20:42.657Z,92193.94
2023-04-07T10:23:20.665Z,92193.56
2023-04-07T10:25:54.312Z,92188.63
2023-04-07T10:28:25.524Z,92197.53
2023-04-07T10:30:54.425Z,92195.84
2023-04-07T10:33:48.999Z,92205.06
2023-04-07T10:36:20.416Z,92205.00
2023-04-07T10:39:25.058Z,92203.44
2023-04-07T10:41:54.898Z,92203.22
2023-04-07T10:45:00.915Z,92208.22
2023-04-07T10:47:29.749Z,92206.28
2023-04-07T10:50:20.141Z,92206.72
2023-04-07T10:52:50.057Z,92205.97
2023-04-07T10:55:37.605Z,92207.63
2023-04-07T10:58:24.920Z,92208.44
2023-04-07T11:01:21.936Z,92203.81
2023-04-07T11:04:01.505Z,92210.34
2023-04-07T11:06:30.358Z,92208.78
2023-04-07T11:08:58.806Z,92201.91
2023-04-07T11:11:43.549Z,92200.00
2023-04-07T11:14:13.449Z,92204.19
2023-04-07T11:16:45.922Z,92203.03
2023-04-07T11:19:14.431Z,92199.19
2023-04-07T11:21:42.903Z,92206.88
2023-04-07T11:24:11.989Z,92195.41
2023-04-07T11:26:42.073Z,92205.81
2023-04-07T11:29:13.744Z,92202.38
2023-04-07T11:31:42.292Z,92208.06
2023-04-07T11:34:11.228Z,92206.19
2023-04-07T11:36:42.324Z,92204.59
2023-04-07T11:39:21.605Z,92211.53
2023-04-07T11:41:52.077Z,92200.78
2023-04-07T11:44:22.200Z,92210.03
2023-04-07T11:46:58.835Z,92210.03
2023-04-07T11:49:32.498Z,92207.69
2023-04-07T11:52:03.338Z,92206.97
2023-04-07T11:54:42.682Z,92210.47
2023-04-07T11:57:13.128Z,92213.13
2023-04-07T11:59:43.526Z,92213.16
2023-04-07T12:02:12.122Z,92213.16
2023-04-07T12:04:57.602Z,92205.50
2023-04-07T12:07:28.331Z,92208.56
2023-04-07T12:12:47.576Z,92210.47
2023-04-07T12:15:17.627Z,92212.03
2023-04-07T12:17:47.918Z,92209.69
2023-04-07T12:20:17.541Z,92210.06
2023-04-07T12:22:46.319Z,92208.91
2023-04-07T12:25:14.808Z,92206.66
2023-04-07T12:27:43.903Z,92210.06
2023-04-07T12:30:14.063Z,92213.09
2023-04-07T12:32:43.927Z,92208.53
2023-04-07T12:38:01.673Z,92210.84
2023-04-07T12:40:31.591Z,92214.69
2023-04-07T12:43:00.075Z,92213.53
2023-04-07T12:45:30.641Z,92212.34
2023-04-07T12:48:01.078Z,92213.09
2023-04-07T12:50:30.519Z,92213.94
2023-04-07T12:53:01.701Z,92213.19
2023-04-07T12:55:30.463Z,92205.47
2023-04-07T12:57:59.103Z,92208.91
2023-04-07T13:00:27.559Z,92210.06
2023-04-07T13:02:56.979Z,92210.84
2023-04-07T13:05:27.491Z,92223.06
2023-04-07T13:07:56.641Z,92226.47
2023-04-07T13:10:25.091Z,92224.50
2023-04-07T13:12:53.517Z,92226.09
2023-04-07T13:15:22.327Z,92220.34
2023-04-07T13:17:50.819Z,92227.59
2023-04-07T13:20:20.756Z,92226.44
2023-04-07T13:23:02.724Z,92225.31
2023-04-07T13:25:34.554Z,92227.06
2023-04-07T13:28:03.104Z,92231.09
2023-04-07T13:30:31.817Z,92224.94
2023-04-07T13:33:00.638Z,92230.66
2023-04-07T13:35:30.427Z,92233.00
2023-04-07T13:38:00.316Z,92230.66
2023-04-07T13:40:28.728Z,92234.41
2023-04-07T13:42:57.408Z,92230.53
2023-04-07T13:45:27.549Z,92241.25
2023-04-07T13:47:56.969Z,92230.81
2023-04-07T13:50:26.275Z,92240.28
2023-04-07T13:52:54.716Z,92236.50
2023-04-07T13:55:24.514Z,92241.47
2023-04-07T13:57:52.955Z,92240.09
2023-04-07T14:00:22.031Z,92238.53
2023-04-07T14:02:50.578Z,92239.97
2023-04-07T14:05:19.254Z,92245.50
2023-04-07T14:07:48.172Z,92235.53
2023-04-07T14:10:16.840Z,92236.72
2023-04-07T14:12:46.682Z,92236.13
2023-04-07T14:15:16.430Z,92240.56
2023-04-07T14:17:46.236Z,92236.06
2023-04-07T14:20:14.716Z,92236.84
2023-04-07T14:22:43.340Z,92246.03
2023-04-07T14:25:12.661Z,92239.84
2023-04-07T14:27:41.543Z,92241.41
2023-04-07T14:30:13.386Z,92243.03
2023-04-07T14:32:42.077Z,92236.84
2023-04-07T14:35:11.355Z,92228.66
2023-04-07T14:37:40.038Z,92236.38
2023-04-07T14:40:10.233Z,92234.50
2023-04-07T14:42:39.202Z,92227.56
2023-04-07T14:45:10.538Z,92234.53
2023-04-07T14:47:39.027Z,92238.38
2023-04-07T14:50:08.723Z,92229.88
2023-04-07T14:52:37.195Z,92232.97
2023-04-07T14:55:06.806Z,92231.44
2023-04-07T14:57:35.465Z,92237.19
2023-04-07T15:00:07.429Z,92236.44
2023-04-07T15:02:37.906Z,92240.53
2023-04-07T15:05:07.602Z,92233.19
2023-04-07T15:07:37.678Z,92234.72
2023-04-07T15:10:07.110Z,92246.03
2023-04-07T15:12:35.620Z,92244.38
2023-04-07T15:15:04.217Z,92247.44
2023-04-07T15:17:42.971Z,92240.94
2023-04-07T15:20:14.290Z,92243.59
2023-04-07T15:22:42.953Z,92241.63
2023-04-07T15:25:11.450Z,92241.22
2023-04-07T15:27:40.037Z,92245.06
2023-04-07T15:30:09.994Z,92250.50
2023-04-07T15:32:38.774Z,92248.09
2023-04-07T15:35:10.036Z,92255.34
2023-04-07T15:37:39.843Z,92255.00
2023-04-07T15:40:10.105Z,92253.09
2023-04-07T15:42:41.764Z,92258.81
2023-04-07T15:45:12.041Z,92259.47
2023-04-07T15:47:40.706Z,92271.66
2023-04-07T15:50:11.123Z,92270.44
2023-04-07T15:52:40.961Z,92269.94
2023-04-07T15:55:10.865Z,92271.50
2023-04-07T15:57:39.307Z,92278.91
2023-04-07T16:00:10.189Z,92271.56
2023-04-07T16:02:39.355Z,92278.41
2023-04-07T16:05:08.376Z,92280.38
2023-04-07T16:07:36.959Z,92289.50
2023-04-07T16:10:08.766Z,92292.28
2023-04-07T16:12:38.179Z,92286.50
2023-04-07T16:15:09.863Z,92293.47
2023-04-07T16:17:40.442Z,92291.81
2023-04-07T16:20:14.552Z,92302.50
2023-04-07T16:22:43.402Z,92304.44
2023-04-07T16:25:13.828Z,92306.59
2023-04-07T16:27:42.529Z,92310.66
2023-04-07T16:30:13.934Z,92321.16
2023-04-07T16:32:43.732Z,92324.22
2023-04-07T16:35:12.576Z,92321.91
2023-04-07T16:37:43.334Z,92331.91
2023-04-07T16:40:14.015Z,92332.09
2023-04-07T16:42:42.469Z,92344.13
2023-04-07T16:45:12.000Z,92339.91
2023-04-07T16:47:44.313Z,92354.63
2023-04-07T16:50:14.069Z,92348.84
2023-04-07T16:52:45.867Z,92353.44
2023-04-07T16:55:15.768Z,92365.75
2023-04-07T16:57:44.409Z,92361.16
2023-04-07T17:00:14.547Z,92361.75
2023-04-07T17:02:43.117Z,92374.31
2023-04-07T17:05:11.825Z,92363.00
2023-04-07T17:07:40.265Z,92364.88
2023-04-07T17:10:10.244Z,92370.56
2023-04-07T17:12:40.056Z,92373.44
2023-04-07T17:15:09.576Z,92374.03
2023-04-07T17:17:39.296Z,92383.91
2023-04-07T17:20:09.512Z,92382.47
2023-04-07T17:22:37.985Z,92381.97
2023-04-07T17:25:07.885Z,92387.53
2023-04-07T17:27:36.547Z,92389.50
2023-04-07T17:30:09.616Z,92395.56
2023-04-07T17:32:38.126Z,92391.84
2023-04-07T17:35:07.616Z,92394.84
2023-04-07T17:37:36.835Z,92392.91
2023-04-07T17:40:06.014Z,92403.56
2023-04-07T17:42:34.478Z,92403.84
2023-04-07T17:45:03.332Z,92391.84
2023-04-07T17:47:33.254Z,92397.56
2023-04-07T17:50:02.026Z,92401.50
2023-04-07T17:52:30.781Z,92400.66
2023-04-07T17:54:59.388Z,92401.28
2023-04-07T17:57:27.885Z,92410.56
2023-04-07T17:59:56.311Z,92413.31
2023-04-07T18:02:25.160Z,92410.09
2023-04-07T18:04:57.631Z,92413.66
2023-04-07T18:07:26.448Z,92415.44
2023-04-07T18:09:54.981Z,92415.72
2023-04-07T18:12:23.630Z,92416.56
2023-04-07T18:14:52.124Z,92421.47
2023-04-07T18:17:20.679Z,92423.59
2023-04-07T18:19:49.707Z,92433.78
2023-04-07T18:22:19.507Z,92426.31
2023-04-07T18:24:47.976Z,92428.59
2023-04-07T18:27:16.508Z,92428.81
2023-04-07T18:29:45.166Z,92442.31
2023-04-07T18:32:13.604Z,92442.34
2023-04-07T18:34:42.053Z,92445.72
2023-04-07T18:37:10.701Z,92446.81
2023-04-07T18:39:40.625Z,92454.06
2023-04-07T18:42:09.101Z,92447.00
2023-04-07T18:44:37.603Z,92461.16
2023-04-07T18:47:06.172Z,92455.03
2023-04-07T18:49:34.905Z,92448.25
2023-04-07T18:52:03.485Z,92454.69
2023-04-07T18:54:31.943Z,92460.88
2023-04-07T18:57:02.583Z,92468.31
2023-04-07T18:59:31.508Z,92467.88
2023-04-07T19:02:00.086Z,92461.66
2023-04-07T19:04:28.794Z,92474.69
2023-04-07T19:06:57.625Z,92466.69
2023-04-07T19:09:26.856Z,92488.41
2023-04-07T19:11:55.303Z,92494.97
2023-04-07T19:14:25.153Z,92496.06
2023-04-07T19:16:53.723Z,92489.41
2023-04-07T19:19:22.173Z,92493.25
2023-04-07T19:21:51.823Z,92491.13
2023-04-07T19:24:20.334Z,92501.84
2023-04-07T19:26:48.807Z,92499.16
2023-04-07T19:29:17.477Z,92506.41
2023-04-07T19:31:48.016Z,92508.47
2023-04-07T19:34:16.481Z,92506.41
2023-04-07T19:36:44.945Z,92503.25
2023-04-07T19:39:13.609Z,92511.69
2023-04-07T19:41:42.066Z,92515.91
2023-04-07T19:44:10.511Z,92516.59
2023-04-07T19:46:38.964Z,92517.41
2023-04-07T19:49:08.871Z,92520.28
2023-04-07T19:51:37.394Z,92523.88
2023-04-07T19:54:05.818Z,92521.63
2023-04-07T19:56:34.270Z,92523.84
2023-04-07T19:59:02.682Z,92524.19
2023-04-07T20:01:31.434Z,92523.03
2023-04-07T20:04:00.080Z,92523.38
2023-04-07T20:06:31.121Z,92532.66
2023-04-07T20:09:00.992Z,92524.56
2023-04-07T20:11:29.539Z,92526.25
2023-04-07T20:13:57.978Z,92522.66
2023-04-07T20:16:27.341Z,92520.91
2023-04-07T20:18:56.449Z,92518.44
2023-04-07T20:21:25.895Z,92523.50
2023-04-07T20:23:55.964Z,92524.19
2023-04-07T20:26:24.392Z,92524.88
2023-04-07T20:28:52.903Z,92527.13
2023-04-07T20:31:21.593Z,92529.00
2023-04-07T20:33:50.341Z,92535.19
2023-04-07T20:36:19.078Z,92535.41
2023-04-07T20:38:49.330Z,92529.00
2023-04-07T20:41:19.707Z,92531.38
2023-04-07T20:43:48.210Z,92534.00
2023-04-07T20:46:16.748Z,92541.94
2023-04-07T20:48:45.233Z,92541.22
2023-04-07T20:51:13.748Z,92533.63
2023-04-07T20:53:42.335Z,92538.28
2023-04-07T20:56:11.563Z,92541.41
2023-04-07T20:58:41.799Z,92542.94
2023-04-07T21:01:10.417Z,92539.91
2023-04-07T21:03:39.343Z,92548.53
2023-04-07T21:06:08.714Z,92543.19
2023-04-07T21:08:37.168Z,92553.88
2023-04-07T21:11:05.712Z,92552.47
2023-04-07T21:13:34.208Z,92549.66
2023-04-07T21:16:05.711Z,92554.66
2023-04-07T21:18:34.429Z,92553.38
2023-04-07T21:21:03.506Z,92551.75
2023-04-07T21:23:32.119Z,92541.22
2023-04-07T21:26:04.106Z,92553.81
2023-04-07T21:28:32.607Z,92542.91
2023-04-07T21:31:01.412Z,92554.72
2023-04-07T21:33:31.280Z,92549.84
2023-04-07T21:36:01.760Z,92544.50
2023-04-07T21:38:31.172Z,92549.47
2023-04-07T21:40:59.719Z,92539.13
2023-04-07T21:43:29.504Z,92544.81
2023-04-07T21:45:58.057Z,92539.91
2023-04-07T21:48:26.728Z,92544.88
2023-04-07T21:50:56.600Z,92545.44
2023-04-07T21:53:25.088Z,92537.22
2023-04-07T21:55:54.352Z,92545.75
2023-04-07T21:58:23.525Z,92537.91
2023-04-07T22:00:51.982Z,92545.00
2023-04-07T22:03:20.572Z,92540.69
2023-04-07T22:05:49.355Z,92541.09
2023-04-07T22:08:19.605Z,92545.31
2023-04-07T22:10:48.061Z,92545.69
2023-04-07T22:13:16.484Z,92544.59
2023-04-07T22:15:45.059Z,92537.91
2023-04-07T22:18:13.748Z,92537.94
2023-04-07T22:20:42.236Z,92543.44
2023-04-07T22:23:11.066Z,92545.84
2023-04-07T22:25:40.888Z,92542.75
2023-04-07T22:28:09.357Z,92546.72
2023-04-07T22:30:37.801Z,92545.59
2023-04-07T22:33:07.200Z,92545.53
2023-04-07T22:35:35.820Z,92547.69
2023-04-07T22:38:04.318Z,92549.22
2023-04-07T22:40:33.285Z,92546.66
2023-04-07T22:43:03.437Z,92552.94
2023-04-07T22:45:32.097Z,92552.47
2023-04-07T22:48:00.627Z,92564.31
2023-04-07T22:50:29.235Z,92552.63
2023-04-07T22:52:57.680Z,92561.50
2023-04-07T22:55:26.183Z,92564.31
2023-04-07T22:57:54.956Z,92572.00
2023-04-07T23:00:24.866Z,92568.63
2023-04-07T23:02:53.566Z,92556.84
2023-04-07T23:05:22.168Z,92567.34
2023-04-07T23:07:51.753Z,92560.13
2023-04-07T23:10:20.560Z,92565.84
2023-04-07T23:12:49.073Z,92566.31
2023-04-07T23:15:17.781Z,92564.56
2023-04-07T23:17:47.904Z,92558.94
2023-04-07T23:20:16.657Z,92555.16
2023-04-07T23:22:45.099Z,92557.59
2023-04-07T23:25:13.548Z,92552.91
2023-04-07T23:27:42.870Z,92561.13
2023-04-07T23:30:12.731Z,92560.44
2023-04-07T23:32:41.487Z,92565.00
2023-04-07T23:35:12.159Z,92562.94
2023-04-07T23:37:40.658Z,92567.25
2023-04-07T23:40:11.327Z,92568.28
2023-04-07T23:42:39.781Z,92569.03
2023-04-07T23:45:09.500Z,92569.00
2023-04-07T23:47:38.263Z,92571.09
2023-04-07T23:50:08.845Z,92569.50
2023-04-07T23:52:38.697Z,92565.59
2023-04-07T23:55:08.233Z,92570.19
2023-04-07T23:57:37.110Z,92566.25
